createdAt,value
2018-08-25T00:01:13.513Z,1.60
2018-08-25T00:03:42.183Z,1.60
2018-08-25T00:06:10.752Z,1.70
2018-08-25T00:08:39.765Z,2.05
2018-08-25T00:11:11.031Z,2.17
2018-08-25T00:13:45.657Z,2.40
2018-08-25T00:16:14.935Z,2.10
2018-08-25T00:18:43.371Z,2.52
2018-08-25T00:21:11.997Z,2.30
2018-08-25T00:23:50.372Z,2.20
2018-08-25T00:26:25.401Z,2.58
2018-08-25T00:28:55.394Z,2.27
2018-08-25T00:31:38.543Z,2.70
2018-08-25T00:34:12.862Z,2.92
2018-08-25T00:36:42.044Z,2.45
2018-08-25T00:39:18.347Z,2.62
2018-08-25T00:41:52.837Z,2.85
2018-08-25T00:44:22.051Z,3.12
2018-08-25T00:46:50.878Z,2.90
2018-08-25T00:49:19.432Z,2.70
2018-08-25T00:51:51.188Z,3.08
2018-08-25T00:54:25.101Z,2.90
2018-08-25T00:57:15.401Z,2.95
2018-08-25T00:59:56.867Z,2.33
2018-08-25T01:02:29.850Z,2.80
2018-08-25T01:07:49.627Z,2.20
2018-08-25T01:10:25.771Z,1.87
2018-08-25T01:13:00.308Z,2.37
2018-08-25T01:15:29.400Z,2.00
2018-08-25T01:18:07.485Z,1.87
2018-08-25T01:20:40.197Z,1.67
2018-08-25T01:23:09.288Z,1.92
2018-08-25T01:25:38.017Z,2.00
2018-08-25T01:28:12.025Z,1.60
2018-08-25T01:30:40.414Z,1.55
2018-08-25T01:33:09.147Z,1.20
2018-08-25T01:35:53.995Z,1.00
2018-08-25T01:38:34.620Z,1.20
2018-08-25T01:41:04.338Z,0.60
2018-08-25T01:43:33.996Z,0.78
2018-08-25T01:46:08.197Z,1.15
2018-08-25T01:48:42.724Z,0.85
2018-08-25T01:51:16.560Z,0.90
2018-08-25T01:54:00.731Z,0.90
2018-08-25T01:56:36.780Z,0.88
2018-08-25T01:59:07.984Z,1.10
2018-08-25T02:01:36.942Z,1.20
2018-08-25T02:04:12.040Z,1.20
2018-08-25T02:06:42.452Z,1.25
2018-08-25T02:09:12.949Z,1.27
2018-08-25T02:11:59.696Z,1.22
2018-08-25T02:14:29.099Z,1.20
2018-08-25T02:20:02.031Z,1.42
2018-08-25T02:22:36.069Z,1.40
2018-08-25T02:27:59.703Z,1.50
2018-08-25T02:30:33.768Z,1.60
2018-08-25T02:33:12.445Z,1.37
2018-08-25T02:44:17.105Z,1.70
2018-08-25T02:46:48.118Z,1.72
2018-08-25T02:49:22.168Z,1.40
2018-08-25T02:52:02.497Z,1.50
2018-08-25T02:54:30.959Z,1.60
2018-08-25T02:57:05.221Z,1.45
2018-08-25T02:59:35.404Z,1.57
2018-08-25T03:02:04.177Z,1.77
2018-08-25T03:04:33.001Z,1.50
2018-08-25T03:07:06.926Z,1.50
2018-08-25T03:09:38.088Z,1.57
2018-08-25T03:12:09.745Z,1.42
2018-08-25T03:14:38.538Z,1.60
2018-08-25T03:17:07.340Z,1.20
2018-08-25T03:19:37.018Z,1.47
2018-08-25T03:22:11.174Z,1.30
2018-08-25T03:24:56.383Z,1.45
2018-08-25T03:27:30.604Z,1.57
2018-08-25T03:29:59.754Z,1.17
2018-08-25T03:32:28.517Z,1.40
2018-08-25T03:34:57.879Z,1.40
2018-08-25T03:37:29.171Z,1.62
2018-08-25T03:40:03.239Z,1.40
2018-08-25T03:42:38.009Z,1.30
2018-08-25T03:45:09.294Z,1.20
2018-08-25T03:47:38.072Z,1.17
2018-08-25T03:50:12.489Z,1.25
2018-08-25T03:52:44.502Z,1.45
2018-08-25T03:55:13.252Z,1.52
2018-08-25T03:57:49.749Z,1.60
2018-08-25T04:00:19.050Z,1.55
2018-08-25T04:02:47.912Z,1.37
2018-08-25T04:05:16.588Z,1.55
2018-08-25T04:07:47.654Z,1.05
2018-08-25T04:10:16.241Z,1.12
2018-08-25T04:12:50.496Z,1.25
2018-08-25T04:15:25.035Z,0.90
2018-08-25T04:17:56.328Z,0.72
2018-08-25T04:20:30.492Z,0.85
2018-08-25T04:24:31.540Z,0.98
2018-08-25T04:27:18.861Z,1.05
2018-08-25T04:29:50.838Z,1.00
2018-08-25T04:32:25.868Z,1.30
2018-08-25T04:36:20.514Z,1.17
2018-08-25T04:38:52.843Z,0.93
2018-08-25T04:41:21.408Z,0.85
2018-08-25T04:43:50.460Z,0.78
2018-08-25T04:46:22.454Z,0.70
2018-08-25T04:48:58.658Z,0.80
2018-08-25T04:51:26.940Z,0.62
2018-08-25T04:54:00.981Z,0.90
2018-08-25T04:56:30.189Z,0.90
2018-08-25T04:58:59.252Z,0.55
2018-08-25T05:01:46.682Z,0.60
2018-08-25T05:04:20.451Z,0.60
2018-08-25T05:06:55.344Z,0.80
2018-08-25T05:09:26.487Z,0.68
2018-08-25T05:11:55.209Z,0.60
2018-08-25T05:14:24.025Z,0.62
2018-08-25T05:17:02.121Z,0.55
2018-08-25T05:19:33.056Z,0.70
2018-08-25T05:22:02.085Z,0.68
2018-08-25T05:24:30.522Z,0.80
2018-08-25T05:27:02.285Z,0.80
2018-08-25T05:29:37.381Z,0.70
2018-08-25T05:32:06.775Z,0.88
2018-08-25T05:34:35.306Z,0.72
2018-08-25T05:37:03.890Z,0.98
2018-08-25T05:39:32.852Z,1.10
2018-08-25T05:42:01.370Z,0.90
2018-08-25T05:44:35.657Z,0.90
2018-08-25T05:47:04.775Z,1.20
2018-08-25T05:49:33.375Z,1.12
2018-08-25T05:52:04.950Z,1.57
2018-08-25T05:54:33.819Z,1.50
2018-08-25T05:57:03.194Z,1.70
2018-08-25T05:59:33.432Z,1.55
2018-08-25T06:02:07.931Z,1.60
2018-08-25T06:04:39.200Z,1.60
2018-08-25T06:07:09.616Z,1.67
2018-08-25T06:09:40.332Z,1.60
2018-08-25T06:12:10.473Z,1.50
2018-08-25T06:14:48.554Z,1.45
2018-08-25T06:17:17.715Z,1.60
2018-08-25T06:19:48.099Z,1.50
2018-08-25T06:22:19.816Z,1.80
2018-08-25T06:24:48.346Z,1.75
2018-08-25T06:27:24.565Z,1.62
2018-08-25T06:29:54.311Z,1.80
2018-08-25T06:32:25.605Z,1.65
2018-08-25T06:34:54.401Z,1.70
2018-08-25T06:37:22.989Z,1.75
2018-08-25T06:39:54.457Z,1.87
2018-08-25T06:42:24.338Z,1.90
2018-08-25T06:44:59.344Z,2.00
2018-08-25T06:47:40.947Z,1.87
2018-08-25T06:50:16.872Z,1.90
2018-08-25T06:52:48.761Z,2.10
2018-08-25T06:55:21.582Z,2.35
2018-08-25T06:57:55.664Z,2.10
2018-08-25T07:00:30.459Z,2.15
2018-08-25T07:02:59.709Z,2.00
2018-08-25T07:05:28.677Z,2.10
2018-08-25T07:08:00.810Z,2.05
2018-08-25T07:10:34.971Z,1.90
2018-08-25T07:13:04.716Z,1.87
2018-08-25T07:15:35.106Z,1.67
2018-08-25T07:18:03.863Z,1.65
2018-08-25T07:20:33.639Z,1.50
2018-08-25T07:23:02.119Z,1.20
2018-08-25T07:25:30.682Z,1.40
2018-08-25T07:27:59.266Z,1.20
2018-08-25T07:30:28.026Z,1.00
2018-08-25T07:32:57.772Z,1.02
2018-08-25T07:35:26.567Z,1.25
2018-08-25T07:37:55.232Z,1.80
2018-08-25T07:40:27.077Z,1.15
2018-08-25T07:42:55.881Z,1.00
2018-08-25T07:45:24.741Z,1.30
2018-08-25T07:47:53.209Z,1.10
2018-08-25T07:50:21.987Z,1.10
2018-08-25T07:52:50.647Z,0.98
2018-08-25T07:55:19.306Z,1.02
2018-08-25T07:57:48.022Z,1.35
2018-08-25T08:00:16.556Z,1.10
2018-08-25T08:02:45.220Z,1.10
2018-08-25T08:05:13.798Z,0.80
2018-08-25T08:08:09.426Z,0.80
2018-08-25T08:10:39.361Z,0.70
2018-08-25T08:13:14.585Z,0.93
2018-08-25T08:15:43.046Z,1.00
2018-08-25T08:18:12.617Z,1.10
2018-08-25T08:22:06.177Z,0.70
2018-08-25T08:24:35.708Z,1.00
2018-08-25T08:27:06.350Z,0.93
2018-08-25T08:29:35.617Z,1.10
2018-08-25T08:32:06.084Z,1.10
2018-08-25T08:34:34.801Z,0.85
2018-08-25T08:37:03.710Z,0.90
2018-08-25T08:39:32.717Z,1.00
2018-08-25T08:42:01.161Z,1.00
2018-08-25T08:44:29.650Z,0.90
2018-08-25T08:46:58.336Z,0.98
2018-08-25T08:49:27.077Z,0.80
2018-08-25T08:51:55.874Z,0.75
2018-08-25T08:54:24.332Z,0.50
2018-08-25T08:56:53.378Z,0.62
2018-08-25T08:59:22.125Z,1.37
2018-08-25T09:01:50.915Z,1.70
2018-08-25T09:04:19.462Z,0.80
2018-08-25T09:06:49.051Z,0.88
2018-08-25T09:09:18.749Z,1.05
2018-08-25T09:11:47.480Z,1.17
2018-08-25T09:14:16.085Z,1.00
2018-08-25T09:16:44.869Z,0.80
2018-08-25T09:19:13.553Z,0.70
2018-08-25T09:21:42.309Z,0.80
2018-08-25T09:24:10.932Z,0.82
2018-08-25T09:26:39.420Z,0.90
2018-08-25T09:29:08.001Z,1.10
2018-08-25T09:31:36.693Z,2.12
2018-08-25T09:34:05.674Z,2.20
2018-08-25T09:36:34.802Z,0.95
2018-08-25T09:39:04.524Z,0.90
2018-08-25T09:41:33.434Z,0.75
2018-08-25T09:44:02.823Z,0.90
2018-08-25T09:46:32.005Z,0.82
2018-08-25T09:49:00.862Z,1.10
2018-08-25T09:51:29.521Z,1.07
2018-08-25T09:53:58.206Z,0.70
2018-08-25T09:56:26.968Z,0.93
2018-08-25T09:58:58.886Z,1.00
2018-08-25T10:01:30.102Z,1.00
2018-08-25T10:04:00.679Z,1.00
2018-08-25T10:06:29.590Z,1.00
2018-08-25T10:08:58.854Z,1.00
2018-08-25T10:11:27.345Z,1.05
2018-08-25T10:13:59.601Z,1.10
2018-08-25T10:16:27.890Z,0.90
2018-08-25T10:18:59.914Z,0.78
2018-08-25T10:21:28.536Z,1.10
2018-08-25T10:23:57.356Z,0.65
2018-08-25T10:26:27.178Z,0.70
2018-08-25T10:28:56.061Z,0.78
2018-08-25T10:31:24.671Z,0.78
2018-08-25T10:33:53.441Z,0.50
2018-08-25T10:36:22.302Z,0.70
2018-08-25T10:38:51.094Z,0.82
2018-08-25T10:41:20.841Z,0.90
2018-08-25T10:43:49.598Z,0.57
2018-08-25T10:46:18.361Z,0.98
2018-08-25T10:48:47.162Z,0.50
2018-08-25T10:51:16.809Z,0.90
2018-08-25T10:53:45.593Z,0.90
2018-08-25T10:56:14.365Z,0.80
2018-08-25T10:58:42.949Z,0.65
2018-08-25T11:01:11.626Z,0.90
2018-08-25T11:05:04.878Z,0.82
2018-08-25T11:07:33.504Z,1.02
2018-08-25T11:10:02.404Z,0.88
2018-08-25T11:12:31.069Z,0.80
2018-08-25T11:15:00.042Z,0.72
2018-08-25T11:17:28.352Z,0.90
2018-08-25T11:19:57.016Z,0.70
2018-08-25T11:22:25.777Z,0.70
2018-08-25T11:24:54.502Z,0.70
2018-08-25T11:27:23.276Z,0.68
2018-08-25T11:29:52.317Z,0.70
2018-08-25T11:32:20.523Z,0.70
2018-08-25T11:34:49.100Z,0.80
2018-08-25T11:37:17.777Z,1.07
2018-08-25T11:39:46.300Z,0.80
2018-08-25T11:42:15.449Z,0.57
2018-08-25T11:44:44.825Z,0.60
2018-08-25T11:47:15.928Z,0.57
2018-08-25T11:49:45.571Z,0.90
2018-08-25T11:52:14.353Z,1.10
2018-08-25T11:54:44.524Z,0.78
2018-08-25T11:57:12.893Z,0.62
2018-08-25T11:59:41.590Z,0.62
2018-08-25T12:02:10.401Z,0.72
2018-08-25T12:04:39.012Z,0.65
2018-08-25T12:07:07.659Z,0.70
2018-08-25T12:09:36.332Z,0.65
2018-08-25T12:12:05.198Z,0.60
2018-08-25T12:14:33.733Z,0.60
2018-08-25T12:17:02.516Z,0.68
2018-08-25T12:19:31.641Z,0.55
2018-08-25T12:22:01.339Z,0.82
2018-08-25T12:24:30.025Z,0.68
2018-08-25T12:27:01.385Z,0.57
2018-08-25T12:29:31.008Z,0.80
2018-08-25T12:31:59.932Z,0.72
2018-08-25T12:34:29.338Z,0.82
2018-08-25T12:36:57.769Z,0.70
2018-08-25T12:39:27.414Z,0.75
2018-08-25T12:41:56.026Z,0.40
2018-08-25T12:44:25.082Z,0.70
2018-08-25T12:46:54.782Z,0.30
2018-08-25T12:50:47.995Z,0.30
2018-08-25T12:53:17.256Z,0.45
2018-08-25T12:55:48.652Z,0.60
2018-08-25T12:58:18.597Z,0.90
2018-08-25T13:00:47.109Z,0.68
2018-08-25T13:03:16.732Z,0.70
2018-08-25T13:05:45.445Z,0.80
2018-08-25T13:08:14.078Z,0.80
2018-08-25T13:10:42.885Z,0.78
2018-08-25T13:13:11.551Z,0.65
2018-08-25T13:15:40.256Z,0.80
2018-08-25T13:18:09.413Z,0.55
2018-08-25T13:20:38.041Z,0.53
2018-08-25T13:23:06.500Z,0.80
2018-08-25T13:25:35.245Z,0.65
2018-08-25T13:28:04.184Z,0.60
2018-08-25T13:30:33.792Z,0.70
2018-08-25T13:33:02.595Z,0.93
2018-08-25T13:35:31.546Z,0.60
2018-08-25T13:38:01.060Z,0.50
2018-08-25T13:40:30.029Z,0.78
2018-08-25T13:42:58.575Z,0.60
2018-08-25T13:45:29.258Z,0.88
2018-08-25T13:47:57.941Z,1.30
2018-08-25T13:50:26.773Z,1.20
2018-08-25T13:52:55.221Z,0.90
2018-08-25T13:55:24.155Z,0.70
2018-08-25T13:57:52.383Z,0.80
2018-08-25T14:00:21.312Z,0.53
2018-08-25T14:02:49.669Z,0.50
2018-08-25T14:05:18.540Z,0.70
2018-08-25T14:07:48.053Z,1.15
2018-08-25T14:10:17.091Z,1.05
2018-08-25T14:12:45.677Z,0.68
2018-08-25T14:15:14.556Z,1.15
2018-08-25T14:17:42.926Z,0.80
2018-08-25T14:20:11.567Z,0.70
2018-08-25T14:22:40.346Z,0.78
2018-08-25T14:25:08.880Z,0.45
2018-08-25T14:27:37.584Z,0.68
2018-08-25T14:30:06.369Z,1.00
2018-08-25T14:32:34.955Z,1.10
2018-08-25T14:35:05.029Z,0.93
2018-08-25T14:37:34.907Z,0.90
2018-08-25T14:40:03.347Z,1.30
2018-08-25T14:42:32.276Z,1.00
2018-08-25T14:45:02.104Z,1.00
2018-08-25T14:47:30.876Z,0.72
2018-08-25T14:49:59.446Z,0.70
2018-08-25T14:52:28.262Z,1.00
2018-08-25T14:54:56.977Z,1.00
2018-08-25T14:57:26.081Z,1.25
2018-08-25T14:59:54.476Z,1.02
2018-08-25T15:02:23.677Z,1.10
2018-08-25T15:04:52.213Z,1.15
2018-08-25T15:07:21.820Z,1.20
2018-08-25T15:09:50.289Z,0.98
2018-08-25T15:12:18.985Z,0.90
2018-08-25T15:14:47.642Z,1.07
2018-08-25T15:17:19.979Z,1.17
2018-08-25T15:25:37.683Z,1.12
2018-08-25T15:28:11.809Z,0.82
2018-08-25T15:33:42.737Z,0.85
2018-08-25T15:36:11.898Z,1.10
2018-08-25T15:38:40.466Z,1.30
2018-08-25T15:41:09.498Z,1.22
2018-08-25T15:43:38.021Z,1.92
2018-08-25T15:46:06.784Z,1.10
2018-08-25T15:48:36.422Z,1.40
2018-08-25T15:51:05.329Z,1.42
2018-08-25T15:53:34.432Z,1.37
2018-08-25T15:56:03.504Z,1.00
2018-08-25T15:58:33.255Z,1.75
2018-08-25T16:01:02.533Z,1.20
2018-08-25T16:03:31.697Z,1.37
2018-08-25T16:06:00.619Z,1.32
2018-08-25T16:08:29.032Z,1.10
2018-08-25T16:10:57.881Z,1.10
2018-08-25T16:13:26.653Z,0.80
2018-08-25T16:19:02.770Z,1.10
2018-08-25T16:21:36.894Z,0.98
2018-08-25T16:27:10.416Z,1.35
2018-08-25T16:29:39.088Z,1.02
2018-08-25T16:32:08.828Z,1.00
2018-08-25T16:34:37.562Z,0.88
2018-08-25T16:37:13.729Z,1.12
2018-08-25T16:39:45.049Z,0.98
2018-08-25T16:42:26.251Z,1.30
2018-08-25T16:44:56.069Z,1.05
2018-08-25T16:47:25.305Z,1.10
2018-08-25T16:49:59.428Z,1.30
2018-08-25T16:52:28.657Z,1.52
2018-08-25T16:54:58.285Z,1.02
2018-08-25T16:57:27.101Z,1.07
2018-08-25T16:59:55.641Z,1.17
2018-08-25T17:02:27.461Z,0.98
2018-08-25T17:04:56.567Z,1.05
2018-08-25T17:07:25.475Z,1.00
2018-08-25T17:09:54.055Z,1.30
2018-08-25T17:12:22.830Z,2.72
2018-08-25T17:14:52.530Z,1.70
2018-08-25T17:17:21.133Z,1.75
2018-08-25T17:19:49.625Z,2.35
2018-08-25T17:22:27.841Z,3.58
2018-08-25T17:24:56.208Z,3.12
2018-08-25T17:27:24.845Z,2.10
2018-08-25T17:29:54.012Z,2.62
2018-08-25T17:32:22.617Z,2.70
2018-08-25T17:34:51.160Z,2.75
2018-08-25T17:37:20.033Z,2.62
2018-08-25T17:41:18.233Z,1.62
2018-08-25T17:43:47.377Z,1.40
2018-08-25T17:46:15.966Z,1.40
2018-08-25T17:48:44.857Z,1.50
2018-08-25T17:51:13.442Z,1.45
2018-08-25T17:53:42.104Z,1.52
2018-08-25T17:56:10.846Z,1.50
2018-08-25T17:58:39.294Z,1.55
2018-08-25T18:01:07.965Z,1.52
2018-08-25T18:03:36.804Z,1.65
2018-08-25T18:06:05.396Z,1.30
2018-08-25T18:08:34.085Z,1.52
2018-08-25T18:11:04.015Z,1.85
2018-08-25T18:13:32.483Z,1.30
2018-08-25T18:16:01.565Z,1.32
2018-08-25T18:18:30.051Z,1.67
2018-08-25T18:20:58.647Z,1.72
2018-08-25T18:23:27.371Z,1.10
2018-08-25T18:25:56.066Z,1.00
2018-08-25T18:28:24.746Z,1.42
2018-08-25T18:30:53.545Z,1.10
2018-08-25T18:33:22.382Z,1.02
2018-08-25T18:35:51.125Z,1.32
2018-08-25T18:38:19.989Z,1.07
2018-08-25T18:40:48.960Z,0.90
2018-08-25T18:43:18.300Z,1.10
2018-08-25T18:45:46.967Z,1.20
2018-08-25T18:48:15.677Z,1.22
2018-08-25T18:50:44.648Z,1.20
2018-08-25T18:53:14.271Z,1.30
2018-08-25T18:55:42.790Z,1.32
2018-08-25T18:58:11.623Z,1.30
2018-08-25T19:00:40.317Z,1.20
2018-08-25T19:03:08.930Z,1.30
2018-08-25T19:05:37.958Z,1.10
2018-08-25T19:08:06.502Z,1.42
2018-08-25T19:10:35.085Z,1.50
2018-08-25T19:13:10.013Z,1.32
2018-08-25T19:15:39.238Z,1.82
2018-08-25T19:18:08.799Z,1.75
2018-08-25T19:20:37.580Z,2.40
2018-08-25T19:23:06.347Z,2.50
2018-08-25T19:25:35.146Z,3.27
2018-08-25T19:28:04.089Z,3.92
2018-08-25T19:30:32.777Z,4.55
2018-08-25T19:33:02.327Z,4.30
2018-08-25T19:35:31.007Z,3.90
2018-08-25T19:37:59.600Z,3.67
2018-08-25T19:40:28.163Z,3.72
2018-08-25T19:42:56.911Z,3.92
2018-08-25T19:45:25.608Z,3.08
2018-08-25T19:47:54.622Z,2.83
2018-08-25T19:50:23.901Z,2.30
2018-08-25T19:52:52.473Z,1.85
2018-08-25T19:55:21.105Z,1.67
2018-08-25T19:57:49.787Z,2.00
2018-08-25T20:00:18.645Z,1.67
2018-08-25T20:02:47.018Z,1.70
2018-08-25T20:05:15.661Z,1.85
2018-08-25T20:07:44.384Z,1.70
2018-08-25T20:10:13.075Z,1.60
2018-08-25T20:12:41.895Z,1.92
2018-08-25T20:15:10.553Z,2.08
2018-08-25T20:17:39.238Z,2.10
2018-08-25T20:20:08.362Z,1.92
2018-08-25T20:22:37.469Z,2.15
2018-08-25T20:25:06.048Z,1.80
2018-08-25T20:27:34.798Z,1.95
2018-08-25T20:30:03.390Z,2.77
2018-08-25T20:32:32.387Z,2.27
2018-08-25T20:35:01.060Z,2.92
2018-08-25T20:37:32.722Z,3.50
2018-08-25T20:40:01.337Z,3.95
2018-08-25T20:42:30.296Z,4.30
2018-08-25T20:44:58.681Z,3.95
2018-08-25T20:47:33.949Z,3.30
2018-08-25T20:50:03.020Z,2.22
2018-08-25T20:52:32.255Z,2.52
2018-08-25T20:55:01.434Z,2.85
2018-08-25T20:57:30.202Z,2.52
2018-08-25T20:59:58.845Z,2.25
2018-08-25T21:02:28.425Z,2.25
2018-08-25T21:04:57.052Z,2.17
2018-08-25T21:07:26.184Z,2.30
2018-08-25T21:09:54.470Z,2.08
2018-08-25T21:12:25.808Z,2.08
2018-08-25T21:15:06.201Z,1.90
2018-08-25T21:17:42.950Z,2.37
2018-08-25T21:20:12.618Z,2.20
2018-08-25T21:45:43.080Z,2.70
2018-08-25T21:51:14.603Z,2.83
2018-08-25T21:53:58.221Z,2.87
2018-08-25T21:59:31.089Z,2.80
2018-08-25T22:02:00.806Z,3.02
2018-08-25T22:39:02.615Z,2.80
2018-08-25T23:21:57.106Z,2.55
